Roosevelt Field, New York
Current Conditions -  °F | °C
As of 2:51 PM on Saturday 20 Dec 2014 (Local Time) from KJFK Reporting Station
Overcast Overcast  
Wind Chill: 33°   Ceiling: 2900
Heat Index: 33°   Visibility: 10mi
Dew Point: 20°   Wind: 3mph
Humidity: 59%   Direction: 20°NNE
Pressure: 30.28"   Gusts: NA
Location:  40.7256°N, 73.6474°W
Report Text: KJFK 201951Z 02003KT 10SM OVC029 01/M07 A3028 RMK AO2 SLP252 T00061067 $
Loading
Personal Weather Stations






























Interactive Weather Map New forecast layout! Learn more

10-Day Weather Forecast

Advertisements
Track Severe Weather on mobile